Terminal Aerodrome Forecast
Issued by NWS Norman, OK

Home | Current Version | Previous Version | Text Only | Print | Product List | Glossary On
Versions: 1 2 3 4 5 6 7 8 9 10 11 12 13 14
000
FTUS44 KOUN 271737
TAFSPS
TAF
KSPS 271737Z 2718/2818 02009KT P6SM SKC
     FM280000 08008KT P6SM SKC
     FM281000 10012KT P6SM BKN015 PROB30 2812/2818 4SM -TSRA
      OVC015CB=

USA.gov is the U.S. government's official web portal to all federal, state and local government web resources and services.